^^
Station Historical Data
Daily Summary for July 31, 2017 Units:  Metric    English   Both
« Previous Day
Next Day »
Daily Weekly Monthly Yearly Custom
  High: Low: Average:
Temperature: 28.1 °C 11.5 °C 17.4 °C
Dew Point: 3.4 °C -0.4 °C 1.2 °C
Humidity: 46% 19% 35%
Wind Speed: 32km/h 0km/h 6km/h
Wind Gust: 41.8km/h - -
Wind- - ESE
Pressure: 1016.1 hPa 1012.1 hPa -
Precipitation: 0 mm    
Historical Graphs
 
 
Tabular Data for July 31, 2017
Time Temperature Dew Point Pressure Wind Wind Speed Wind Gust Humidity Rainfall Rate (Hourly) solar Conditions
00:01 15.1 °C 0.5 °C 1016.1 hPa NNE 7.9 km/h 9.7 km/h 37% 0 mm 0.0 W/m2
00:11 15.3 °C 0.7 °C 1016.1 hPa NNE 9.7 km/h 9.7 km/h 37% 0 mm 0.0 W/m2
00:26 15.9 °C 0.8 °C 1016.1 hPa Calm   11.3 km/h 36% 0 mm 0.0 W/m2
00:37 15.5 °C 0.5 °C 1015.8 hPa Calm   11.3 km/h 36% 0 mm 0.0 W/m2
00:42 15.3 °C 0.3 °C 1015.8 hPa Calm   8 km/h 36% 0 mm 0.0 W/m2
00:52 14.9 °C 0.3 °C 1015.8 hPa Calm   1.6 km/h 37% 0 mm 0.0 W/m2
00:57 14.7 °C 0.5 °C 1015.8 hPa NNE 1.4 km/h 9.7 km/h 38% 0 mm 0.0 W/m2
01:02 14.5 °C 0.3 °C 1015.8 hPa Calm   8 km/h 38% 0 mm 0.0 W/m2
01:07 14.3 °C 0.2 °C 1015.8 hPa Calm     38% 0 mm 0.0 W/m2
01:17 13.9 °C 0.2 °C 1015.8 hPa NNE 6.4 km/h 11.3 km/h 39% 0 mm 0.0 W/m2
01:22 13.9 °C 0.5 °C 1015.5 hPa NNE 9.7 km/h 11.3 km/h 40% 0 mm 0.0 W/m2
01:27 13.9 °C 0.5 °C 1015.5 hPa NNE 9.7 km/h 9.7 km/h 40% 0 mm 0.0 W/m2
01:32 14.1 °C 0.7 °C 1015.5 hPa Calm   11.3 km/h 40% 0 mm 0.0 W/m2
01:42 14.1 °C 0.3 °C 1015.5 hPa NNE 7.9 km/h 9.7 km/h 39% 0 mm 0.0 W/m2
01:52 13.7 °C 0.3 °C 1015.5 hPa NNE 6.4 km/h 11.3 km/h 40% 0 mm 0.0 W/m2
01:57 13.8 °C 0.4 °C 1015.1 hPa NNE 3.2 km/h 9.7 km/h 40% 0 mm 0.0 W/m2
02:02 13.7 °C 0 °C 1015.1 hPa NNE 3.2 km/h 11.3 km/h 39% 0 mm 0.0 W/m2
02:07 13.6 °C 0.2 °C 1015.5 hPa NNE 11.1 km/h 11.3 km/h 40% 0 mm 0.0 W/m2
02:13 13.6 °C 0.2 °C 1015.1 hPa NNE 3.2 km/h 8 km/h 40% 0 mm 0.0 W/m2
02:18 13.5 °C 0.2 °C 1015.5 hPa NNE 3.2 km/h 8 km/h 40% 0 mm 0.0 W/m2
02:23 13.2 °C 0.2 °C 1015.5 hPa NNE 3.2 km/h 9.7 km/h 41% 0 mm 0.0 W/m2
02:28 13 °C 0 °C 1015.5 hPa NNE 3.2 km/h 8 km/h 41% 0 mm 0.0 W/m2
02:33 13.1 °C 0.1 °C 1015.5 hPa Calm   9.7 km/h 41% 0 mm 0.0 W/m2
02:38 12.9 °C -0.4 °C 1015.5 hPa NNE 1.4 km/h 9.7 km/h 40% 0 mm 0.0 W/m2
02:48 12.2 °C -0.3 °C 1015.1 hPa NNE 9.7 km/h 12.9 km/h 42% 0 mm 0.0 W/m2
02:53 11.9 °C -0.3 °C 1015.1 hPa NNE 9.7 km/h 12.9 km/h 43% 0 mm 0.0 W/m2
02:58 11.8 °C -0.1 °C 1015.1 hPa NNE 11.1 km/h 12.9 km/h 44% 0 mm 0.0 W/m2
03:03 11.8 °C -0.1 °C 1015.1 hPa NNE 7.9 km/h 11.3 km/h 44% 0 mm 0.0 W/m2
03:08 11.9 °C 0 °C 1015.1 hPa NNE 11.1 km/h 12.9 km/h 44% 0 mm 0.0 W/m2
03:13 12.3 °C 0.4 °C 1015.1 hPa NNE 7.9 km/h 12.9 km/h 44% 0 mm 0.0 W/m2
03:18 12.4 °C 0.2 °C 1015.1 hPa NNE 7.9 km/h 12.9 km/h 43% 0 mm 0.0 W/m2
03:28 12.7 °C 0.4 °C 1015.1 hPa NNE 3.2 km/h 9.7 km/h 43% 0 mm 0.0 W/m2
03:38 12.9 °C 0.3 °C 1015.1 hPa NNE 7.9 km/h 8 km/h 42% 0 mm 0.0 W/m2
03:44 12.9 °C 0.3 °C 1015.1 hPa Calm     42% 0 mm 0.0 W/m2
03:49 12.6 °C 0 °C 1014.8 hPa Calm   8 km/h 42% 0 mm 0.0 W/m2
03:59 11.8 °C -0.1 °C 1014.8 hPa Calm   8 km/h 44% 0 mm 0.0 W/m2
04:04 11.6 °C 0.1 °C 1015.1 hPa Calm   6.4 km/h 45% 0 mm 0.0 W/m2
04:09 11.6 °C -0.2 °C 1015.1 hPa Calm     44% 0 mm 0.0 W/m2
04:14 11.6 °C 0.1 °C 1015.1 hPa Calm   3.2 km/h 45% 0 mm 0.0 W/m2
04:19 11.5 °C -0.3 °C 1015.1 hPa Calm     44% 0 mm 0.0 W/m2
04:30 11.9 °C 0.3 °C 1015.1 hPa Calm     45% 0 mm 0.0 W/m2
04:45 11.8 °C 0.2 °C 1015.5 hPa Calm     45% 0 mm 0.0 W/m2
04:50 11.9 °C 0.6 °C 1015.5 hPa Calm     46% 0 mm 0.0 W/m2
04:55 12.4 °C 1.1 °C 1015.5 hPa Calm   8 km/h 46% 0 mm 0.0 W/m2
05:00 13.7 °C 1.3 °C 1015.5 hPa NNE 3.2 km/h 16.1 km/h 43% 0 mm 0.0 W/m2
05:10 14.9 °C 1.4 °C 1015.5 hPa North 7.9 km/h 16.1 km/h 40% 0 mm 0.0 W/m2
05:30 15.3 °C 1.1 °C 1015.8 hPa North 1.4 km/h 11.3 km/h 38% 0 mm 0.0 W/m2
05:40 14.9 °C 1.1 °C 1015.8 hPa North 7.9 km/h 12.9 km/h 39% 0 mm 0.0 W/m2
05:50 14.8 °C 1.3 °C 1015.8 hPa North 13 km/h 16.1 km/h 40% 0 mm 0.0 W/m2
05:55 14.8 °C 1.3 °C 1015.8 hPa North 1.4 km/h 14.5 km/h 40% 0 mm 0.0 W/m2
06:00 14.8 °C 1.3 °C 1015.8 hPa North 3.2 km/h 20.9 km/h 40% 0 mm 0.0 W/m2
06:06 14.7 °C 1.2 °C 1015.8 hPa North 7.9 km/h 14.5 km/h 40% 0 mm 0.0 W/m2
06:41 14.1 °C 1 °C 1016.1 hPa Calm   11.3 km/h 41% 0 mm 9.0 W/m2
06:45 13.9 °C 0.9 °C 1016.1 hPa NNW 3.2 km/h 8 km/h 41% 0 mm 11.0 W/m2
06:50 13.8 °C 1.1 °C 1016.1 hPa Calm   1.6 km/h 42% 0 mm 12.0 W/m2
06:57 13.8 °C 1.1 °C 1016.1 hPa Calm   3.2 km/h 42% 0 mm 14.0 W/m2
07:47 17.4 °C 2.6 °C 1016.1 hPa NNW 17.7 km/h 22.5 km/h 37% 0 mm 162.0 W/m2
08:02 18 °C 2.7 °C 1016.1 hPa North 16.3 km/h 27.4 km/h 36% 0 mm 216.0 W/m2
08:16 18.5 °C 2.7 °C 1015.8 hPa North 16.3 km/h 33.8 km/h 35% 0 mm 260.0 W/m2
08:28 18.9 °C 2.7 °C 1015.8 hPa NNW 22.7 km/h 32.2 km/h 34% 0 mm 304.0 W/m2
08:37 19.2 °C 3 °C 1016.1 hPa NNW 1.4 km/h 32.2 km/h 34% 0 mm 336.0 W/m2
08:42 19.4 °C 3.1 °C 1015.8 hPa NNW 22.7 km/h 32.2 km/h 34% 0 mm 348.0 W/m2
12:43 26.8 °C 3.3 °C 1013.4 hPa NNW 20.9 km/h 33.8 km/h 22% 0 mm 612.0 W/m2
12:52 26.8 °C 3.3 °C 1013.1 hPa NNE 16.3 km/h 33.8 km/h 22% 0 mm 603.0 W/m2
13:02 26.7 °C 3.2 °C 1012.8 hPa NNW 25.9 km/h 35.4 km/h 22% 0 mm 589.0 W/m2
13:12 26.7 °C 3.2 °C 1012.8 hPa North 14.3 km/h 41.8 km/h 22% 0 mm 573.0 W/m2
13:18 26.9 °C 3.4 °C 1012.8 hPa NNE 30.6 km/h 30.6 km/h 22% 0 mm 573.0 W/m2
13:28 27.3 °C 3.1 °C 1012.4 hPa North 17.7 km/h 25.7 km/h 21% 0 mm 555.0 W/m2
13:44 27.7 °C 3.4 °C 1012.4 hPa North 24.1 km/h 24.1 km/h 21% 0 mm 534.0 W/m2
14:02 27.8 °C 2.8 °C 1012.4 hPa North 17.7 km/h 32.2 km/h 20% 0 mm 508.0 W/m2
14:17 27.8 °C 2.8 °C 1012.1 hPa North 19.5 km/h 32.2 km/h 20% 0 mm 478.0 W/m2
14:57 27.8 °C 2.8 °C 1012.1 hPa NNW 22.7 km/h 30.6 km/h 20% 0 mm 380.0 W/m2
15:07 28.1 °C 3 °C 1012.1 hPa NNW 32 km/h 32.2 km/h 20% 0 mm 357.0 W/m2
17:09 26.8 °C 1.2 °C 1012.1 hPa NNW 9.7 km/h 14.5 km/h 19% 0 mm 18.0 W/m2
17:39 26.3 °C 0.8 °C 1012.1 hPa NW 9.7 km/h 17.7 km/h 19% 0 mm 0.0 W/m2
17:53 26.1 °C 0.7 °C 1012.4 hPa Calm     19% 0 mm 0.0 W/m2
18:15 25.2 °C 0.6 °C 1012.4 hPa Calm     20% 0 mm 0.0 W/m2
19:00 23.3 °C 1 °C 1012.8 hPa Calm     23% 0 mm 0.0 W/m2
19:16 22.8 °C 0.6 °C 1013.1 hPa Calm     23% 0 mm 0.0 W/m2
19:29 22.8 °C 1.2 °C 1013.1 hPa NW 9.7 km/h 9.7 km/h 24% 0 mm 0.0 W/m2
19:40 23.8 °C 0.8 °C 1013.1 hPa NW 3.2 km/h 9.7 km/h 22% 0 mm 0.0 W/m2
19:51 23.7 °C 1.3 °C 1013.4 hPa NW 6.4 km/h 8 km/h 23% 0 mm 0.0 W/m2
20:07 22.8 °C 1.2 °C 1013.8 hPa Calm     24% 0 mm 0.0 W/m2
20:37 22.4 °C 2.5 °C 1013.8 hPa Calm     27% 0 mm 0.0 W/m2
20:52 21.4 °C 2.1 °C 1013.8 hPa Calm     28% 0 mm 0.0 W/m2
21:07 21.4 °C 2.6 °C 1013.8 hPa Calm     29% 0 mm 0.0 W/m2
21:18 21.5 °C 2.7 °C 1013.8 hPa Calm     29% 0 mm 0.0 W/m2
21:29 20.9 °C 2.7 °C 1013.8 hPa Calm     30% 0 mm 0.0 W/m2
21:43 20.4 °C 2.7 °C 1013.8 hPa Calm     31% 0 mm 0.0 W/m2
21:52 19.1 °C 1.6 °C 1013.8 hPa Calm     31% 0 mm 0.0 W/m2
22:01 18.8 °C 2.2 °C 1014.1 hPa Calm     33% 0 mm 0.0 W/m2
22:05 18.8 °C 2.2 °C 1014.1 hPa Calm     33% 0 mm 0.0 W/m2
22:13 18.6 °C 2 °C 1014.1 hPa Calm     33% 0 mm 0.0 W/m2
22:24 18.4 °C 1.8 °C 1014.1 hPa Calm     33% 0 mm 0.0 W/m2
22:32 18.5 °C 1.9 °C 1014.1 hPa Calm     33% 0 mm 0.0 W/m2
23:39 18.7 °C 1.7 °C 1013.8 hPa Calm     32% 0 mm 0.0 W/m2
23:45 18.6 °C 2 °C 1013.8 hPa Calm     33% 0 mm 0.0 W/m2
23:50 18.5 °C 1.9 °C 1013.8 hPa Calm     33% 0 mm 0.0 W/m2
23:56 18.5 °C 1.9 °C 1013.8 hPa Calm     33% 0 mm 0.0 W/m2
Canyon Roadhouse, Fishriver Canyon, Namibia
Compliments of Weather Underground - 2 mb